Latest Weather Observations for Narrabri

IDN60801

Issued at 12:52 pm EDT Thursday 21 February 2019 (issued every 10 minutes, with the page automatically refreshed every 10 minutes)

About weather observations | Map of weather stations | Latest weather observations for NSW | Other Formats
Station Details ID: 054038 Name: NARRABRI AIRPORT AWS Lat: -30.32 Lon: 149.83 Height: 229.02 m
Data from the previous 72 hours. | See also: Recent months at Narrabri
Date/Time
EDT
Temp
°C
App
Temp
°C
Dew
Point
°C
Rel
Hum
%
Delta-T
°C
Wind Press
QNH
hPa
Press
MSL
hPa
Rain since
9am
mm
Dir  Spd
km/h
Gust
km/h
Spd
kts
Gust
kts
21/12:30pm 33.4 32.2 14.0 31 11.9 SSE 13 24 7 13 1009.8 1008.4 0.0
21/12:00pm 31.9 30.7 14.1 34 10.9 SW 13 20 7 11 1010.1 1008.7 0.0
21/11:30am 31.6 30.9 14.3 35 10.6 S 11 19 6 10 1010.4 1009.0 0.0
21/11:00am 30.4 29.0 14.5 38 9.8 S 15 28 8 15 1010.5 1009.1 0.0
21/10:30am 29.6 27.5 15.3 41 8.9 SSE 20 32 11 17 1010.5 1009.1 0.0
21/10:00am 28.1 26.2 15.7 46 7.7 SE 20 28 11 15 1010.5 1009.1 0.0
21/09:30am 27.3 25.2 16.3 51 6.9 SE 22 32 12 17 1010.3 1008.9 0.0
21/09:00am 26.4 24.3 16.3 53 6.3 SE 22 32 12 17 1010.1 1008.7 0.0
21/08:30am 25.2 23.2 16.4 58 5.5 SE 22 39 12 21 1009.7 1008.3 0.0
21/08:00am 24.4 22.4 16.4 61 4.9 SSE 22 33 12 18 1009.4 1008.0 0.0
21/07:30am 23.4 21.4 16.4 64 4.3 SE 22 33 12 18 1009.1 1007.7 0.0
21/07:00am 22.9 20.9 16.4 67 4.0 SSE 22 32 12 17 1008.7 1007.3 0.0
21/06:30am 22.9 21.3 16.4 67 4.0 SE 20 28 11 15 1008.5 1007.1 0.0
21/06:00am 23.1 21.5 16.4 66 4.1 SE 20 30 11 16 1008.1 1006.7 0.0
21/05:30am 23.4 21.9 16.7 66 4.1 SE 20 32 11 17 1007.8 1006.4 0.0
21/05:00am 23.6 21.3 16.6 65 4.3 SSE 24 32 13 17 1007.6 1006.1 0.0
21/04:30am 23.7 21.8 16.7 65 4.3 SSE 22 30 12 16 1007.2 1005.7 0.0
21/04:00am 24.0 21.4 16.8 64 4.5 SSE 26 35 14 19 1007.0 1005.6 0.0
21/03:30am 24.2 21.8 16.5 62 4.8 SSE 24 33 13 18 1007.0 1005.6 0.0
21/03:00am 24.7 23.1 16.4 60 5.1 SSE 20 28 11 15 1007.2 1005.7 0.0
21/02:30am 25.5 23.9 16.6 58 5.5 SSE 20 30 11 16 1007.2 1005.7 0.0
21/02:00am 26.0 23.6 16.5 55 5.9 SSE 24 35 13 19 1007.2 1005.7 0.0
21/01:30am 26.6 24.5 16.2 52 6.5 SSE 22 30 12 16 1007.5 1006.0 0.0
21/01:00am 27.4 23.9 15.4 48 7.4 SSE 28 37 15 20 1007.6 1006.1 0.0
21/12:30am 28.2 25.3 15.1 44 8.0 SSE 24 32 13 17 1007.6 1006.1 0.0
21/12:00am 28.9 26.4 15.1 43 8.5 SSE 22 32 12 17 1007.6 1006.1 0.0
 
Date/Time
EDT
Temp
°C
App
Temp
°C
Dew
Point
°C
Rel
Hum
%
Delta-T
°C
Wind Press
QNH
hPa
Press
MSL
hPa
Rain since
9am
mm
Dir  Spd
km/h
Gust
km/h
Spd
kts
Gust
kts
20/11:30pm 29.4 27.2 14.8 41 9.0 S 20 28 11 15 1007.4 1005.9 0.0
20/11:00pm 29.9 27.5 14.4 38 9.5 S 20 28 11 15 1007.0 1005.6 0.0
20/10:30pm 30.6 28.6 13.8 35 10.2 S 17 24 9 13 1007.2 1005.7 0.0
20/10:00pm 31.0 29.2 13.3 34 10.7 S 15 20 8 11 1007.2 1005.7 0.0
20/09:30pm 31.5 25.6 1.8 15 14.9 SSW 22 28 12 15 1007.0 1005.6 0.0
20/09:00pm 32.1 26.1 3.1 16 15.0 SW 24 33 13 18 1006.1 1004.7 0.0
20/08:30pm 32.9 27.0 3.8 16 15.2 WSW 24 35 13 19 1005.6 1004.2 0.0
20/08:00pm 34.0 28.1 3.7 15 16.0 WSW 24 32 13 17 1005.0 1003.6 0.0
20/07:30pm 35.1 28.8 3.6 14 16.7 WSW 26 35 14 19 1004.5 1003.1 0.0
20/07:00pm 36.3 30.2 4.6 14 17.2 W 26 37 14 20 1004.0 1002.6 0.0
20/06:30pm 37.4 31.2 4.4 13 17.9 WSW 26 39 14 21 1003.8 1002.4 0.0
20/06:00pm 37.8 31.7 4.7 13 18.1 W 26 35 14 19 1003.6 1002.1 0.0
20/05:30pm 38.6 32.6 5.3 13 18.4 W 26 33 14 18 1003.4 1001.9 0.0
20/05:00pm 38.5 33.2 5.2 13 18.4 WSW 22 33 12 18 1003.4 1001.9 0.0
20/04:30pm 38.9 34.3 6.6 14 18.2 W 20 32 11 17 1003.6 1002.1 0.0
20/04:00pm 39.1 33.6 5.7 13 18.7 WNW 24 35 13 19 1003.8 1002.4 0.0
20/03:30pm 38.7 34.3 7.4 15 17.9 WNW 20 32 11 17 1004.1 1002.7 0.0
20/03:00pm 38.4 34.0 9.0 17 17.2 W 22 32 12 17 1004.5 1003.1 0.0
20/02:35pm 38.8 34.4 7.5 15 17.9 WNW 20 35 11 19 1004.7 1003.3 0.0
20/02:30pm 38.8 34.4 7.5 15 17.9 WNW 20 33 11 18 1004.9 1003.5 0.0
20/02:00pm 38.7 33.4 8.4 16 17.6 WNW 26 39 14 21 1005.1 1003.7 0.0
20/01:30pm 38.4 34.5 10.7 19 16.6 NW 22 33 12 18 1005.6 1004.2 0.0
20/01:00pm 37.6 33.5 10.0 19 16.3 NNW 22 37 12 20 1006.0 1004.6 0.0
20/12:30pm 37.3 32.8 11.3 21 15.6 NNW 26 37 14 20 1006.4 1005.0 0.0
20/12:00pm 36.6 31.9 12.1 23 14.9 NNW 28 48 15 26 1006.8 1005.4 0.0
20/11:53am 36.7 31.5 11.5 22 15.1 N 30 48 16 26 1006.8 1005.4 0.0
20/11:30am 36.5 31.4 12.0 23 14.8 N 30 43 16 23 1007.2 1005.7 0.0
20/11:00am 35.1 29.7 12.1 25 13.9 N 32 43 17 23 1007.4 1005.9 0.0
20/10:34am 34.7 29.2 11.8 25 13.7 N 32 50 17 27 1007.4 1005.9 0.0
20/10:30am 35.1 30.1 12.1 25 13.9 N 30 44 16 24 1007.4 1005.9 0.0
20/10:00am 34.2 29.9 12.0 26 13.3 N 26 39 14 21 1007.6 1006.1 0.0
20/09:53am 33.7 28.9 11.5 26 13.2 N 28 39 15 21 1007.6 1006.1 0.0
20/09:30am 30.4 30.9 14.1 37 9.9 ESE 4 7 2 4 1007.8 1006.4 0.0
20/09:00am 28.4 29.0 15.7 46 7.9 S 7 11 4 6 1007.8 1006.4 0.0
20/08:30am 26.9 27.4 15.6 50 7.0 SSE 7 11 4 6 1007.7 1006.2 0.0
20/08:00am 25.2 24.8 16.1 57 5.6 SE 13 17 7 9 1007.6 1006.1 0.0
20/07:30am 24.2 23.8 16.2 61 4.9 SSE 13 19 7 10 1007.5 1006.0 0.0
20/07:00am 23.8 22.6 16.1 62 4.7 SSE 17 22 9 12 1006.9 1005.5 0.0
20/06:30am 23.8 22.2 16.1 62 4.7 SSE 19 24 10 13 1006.6 1005.2 0.0
20/06:00am 24.2 23.0 16.2 61 4.9 SSE 17 22 9 12 1006.5 1005.1 0.0
20/05:30am 24.5 22.8 16.2 60 5.1 SE 20 30 11 16 1006.2 1004.8 0.0
20/05:00am 24.6 22.2 16.3 60 5.1 SSE 24 35 13 19 1005.9 1004.5 0.0
20/04:30am 24.6 23.1 16.3 60 5.1 SSE 19 33 10 18 1005.8 1004.4 0.0
20/04:00am 24.9 21.7 16.3 59 5.3 SSE 28 39 15 21 1005.3 1003.9 0.0
20/03:30am 25.3 23.6 16.2 57 5.6 SSE 20 30 11 16 1005.7 1004.3 0.0
20/03:00am 25.8 24.5 15.8 54 6.2 SSE 17 28 9 15 1006.1 1004.7 0.0
20/02:30am 26.4 24.1 15.8 52 6.5 SSE 22 32 12 17 1006.2 1004.8 0.0
20/02:00am 27.2 24.0 15.2 47 7.4 SSE 26 37 14 20 1006.4 1005.0 0.0
20/01:30am 28.4 25.2 14.3 42 8.6 SSE 24 39 13 21 1006.6 1005.2 0.0
20/01:00am 29.9 26.6 10.9 31 11.0 SE 19 26 10 14 1006.8 1005.4 0.0
20/12:30am 31.1 27.6 5.5 20 13.7 SE 13 20 7 11 1006.8 1005.4 0.0
20/12:00am 31.2 28.3 6.3 21 13.5 SSE 11 15 6 8 1006.7 1005.3 0.0
 
Date/Time
EDT
Temp
°C
App
Temp
°C
Dew
Point
°C
Rel
Hum
%
Delta-T
°C
Wind Press
QNH
hPa
Press
MSL
hPa
Rain since
9am
mm
Dir  Spd
km/h
Gust
km/h
Spd
kts
Gust
kts
19/11:30pm 31.0 27.8 6.8 22 13.2 SSE 13 19 7 10 1006.6 1005.2 0.0
19/11:00pm 31.4 27.7 6.5 21 13.6 S 15 22 8 12 1006.3 1004.9 0.0
19/10:30pm 31.0 28.2 6.8 22 13.2 WSW 11 20 6 11 1005.9 1004.5 0.0
19/10:00pm 31.1 27.4 6.2 21 13.5 ENE 15 19 8 10 1005.2 1003.8 0.0
19/09:30pm 32.8 29.1 6.2 19 14.5 E 15 19 8 10 1004.9 1003.5 0.0
19/09:00pm 33.5 30.9 5.9 18 15.1 E 9 11 5 6 1004.5 1003.1 0.0
19/08:30pm 32.7 30.9 5.3 18 14.7 E 4 9 2 5 1004.4 1003.0 0.0
19/08:00pm 34.6 33.3 6.0 17 15.7 ENE 2 6 1 3 1004.3 1002.9 0.0
19/07:30pm 36.5 34.6 4.7 14 17.2 NNE 4 7 2 4 1004.0 1002.6 0.0
19/07:00pm 39.0 37.2 5.6 13 18.6 WSW 4 9 2 5 1003.9 1002.5 0.0
19/06:30pm 39.0 35.2 5.6 13 18.6 W 15 20 8 11 1003.9 1002.5 0.0
19/06:00pm 39.8 36.5 6.2 13 19.0 NW 13 20 7 11 1003.9 1002.5 0.0
19/05:30pm 39.3 35.3 4.7 12 19.0 WSW 15 24 8 13 1003.9 1002.5 0.0
19/05:00pm 39.5 35.9 4.8 12 19.2 W 13 20 7 11 1003.9 1002.5 0.0
19/04:30pm 39.4 35.7 4.7 12 19.1 NW 13 24 7 13 1004.0 1002.6 0.0
19/04:00pm 39.0 34.9 4.4 12 19.0 NNW 15 30 8 16 1004.2 1002.8 0.0
19/03:30pm 39.2 34.6 5.7 13 18.7 NNW 19 28 10 15 1004.8 1003.4 0.0
19/03:00pm 37.9 33.7 5.8 14 17.9 N 17 41 9 22 1005.3 1003.9 0.0
19/02:30pm 38.9 34.3 6.6 14 18.2 NNW 20 35 11 19 1005.8 1004.4 0.0
19/02:00pm 38.1 34.0 7.9 16 17.4 NNW 19 28 10 15 1006.4 1005.0 0.0
19/01:30pm 36.4 32.4 9.1 19 15.8 NNW 20 32 11 17 1006.9 1005.5 0.0
19/01:00pm 36.0 31.7 9.5 20 15.4 NNW 22 35 12 19 1007.5 1006.0 0.0
19/12:30pm 34.6 30.4 11.1 24 13.9 NNW 24 33 13 18 1008.1 1006.7 0.0
19/12:00pm 34.2 29.9 10.7 24 13.8 NNW 24 39 13 21 1008.5 1007.1 0.0
19/11:30am 33.4 28.9 11.3 26 13.1 NNW 26 39 14 21 1009.0 1007.6 0.0
19/11:00am 32.3 27.5 11.5 28 12.3 N 28 37 15 20 1008.9 1007.5 0.0
19/10:30am 31.4 26.2 11.7 29 11.6 N 30 41 16 22 1009.1 1007.7 0.0
19/10:00am 30.7 25.5 11.6 31 11.2 N 30 39 16 21 1009.1 1007.7 0.0
19/09:30am 29.9 25.0 11.4 32 10.8 N 28 39 15 21 1009.2 1007.8 0.0
19/09:00am 28.4 23.6 11.5 35 9.8 N 28 35 15 19 1009.0 1007.6 0.0
19/08:30am 28.5 24.3 11.1 34 10.0 N 24 37 13 20 1008.7 1007.3 0.0
19/08:00am 28.1 25.7 9.9 32 10.3 NNE 13 19 7 10 1008.7 1007.3 0.0
19/07:30am 25.8 23.6 7.9 32 9.7 NE 9 13 5 7 1008.5 1007.1 0.0
19/07:00am 22.8 19.8 6.1 34 8.6 NE 11 13 6 7 1008.3 1006.9 0.0
19/06:30am 23.5 20.1 5.9 32 9.0 ENE 13 15 7 8 1007.7 1006.2 0.0
19/06:00am 25.9 24.0 7.5 31 9.9 NNE 7 11 4 6 1007.2 1005.7 0.0
19/05:30am 27.9 25.5 8.7 30 10.6 ENE 11 15 6 8 1006.9 1005.5 0.0
19/05:00am 28.2 23.8 9.0 30 10.7 N 22 30 12 16 1006.0 1004.6 0.0
19/04:30am 28.0 23.2 7.3 27 11.2 NNE 22 26 12 14 1005.8 1004.4 0.0
19/04:00am 27.6 22.5 5.8 25 11.5 NNE 22 28 12 15 1006.0 1004.6 0.0
19/03:30am 25.4 21.9 5.6 28 10.2 NE 13 17 7 9 1006.1 1004.7 0.0
19/03:00am 25.9 21.7 5.5 27 10.6 NE 17 19 9 10 1006.0 1004.6 0.0
19/02:30am 25.9 21.7 5.5 27 10.6 ENE 17 19 9 10 1006.2 1004.8 0.0
19/02:00am 26.3 22.1 5.8 27 10.7 ENE 17 20 9 11 1006.5 1005.1 0.0
19/01:30am 26.1 21.6 6.2 28 10.4 ENE 19 22 10 12 1006.7 1005.3 0.0
19/01:00am 27.5 23.4 6.3 26 11.3 E 17 20 9 11 1007.0 1005.6 0.0
19/12:30am 27.9 23.8 6.1 25 11.5 E 17 19 9 10 1007.3 1005.8 0.0
19/12:00am 27.7 23.5 5.9 25 11.5 ENE 17 17 9 9 1007.4 1005.9 0.0
 
Date/Time
EDT
Temp
°C
App
Temp
°C
Dew
Point
°C
Rel
Hum
%
Delta-T
°C
Wind Press
QNH
hPa
Press
MSL
hPa
Rain since
9am
mm
Dir  Spd
km/h
Gust
km/h
Spd
kts
Gust
kts
18/11:30pm 28.0 23.8 5.6 24 11.8 E 17 19 9 10 1007.4 1005.9 0.0
18/11:00pm 28.3 24.1 5.8 24 11.9 E 17 20 9 11 1007.7 1006.2 0.0
18/10:30pm 28.8 26.1 5.6 23 12.2 NE 9 13 5 7 1007.9 1006.5 0.0
18/10:00pm 29.6 27.3 5.6 22 12.7 NNE 7 9 4 5 1007.8 1006.4 0.0
18/09:30pm 29.7 27.3 5.1 21 12.9 NNE 7 7 4 4 1007.8 1006.4 0.0
18/09:00pm 30.3 27.6 5.6 21 13.2 NNW 9 9 5 5 1007.5 1006.0 0.0
18/08:30pm 31.2 28.5 5.6 20 13.7 NNW 9 11 5 6 1007.4 1005.9 0.0
18/08:00pm 32.6 30.0 6.0 19 14.5 NW 9 11 5 6 1007.2 1005.7 0.0
18/07:30pm 34.6 31.8 5.1 16 15.9 WNW 9 11 5 6 1006.8 1005.4 0.0
18/07:00pm 36.3 34.1 5.5 15 16.9 WSW 6 9 3 5 1006.6 1005.2 0.0
18/06:30pm 36.6 34.5 5.8 15 17.0 WNW 6 11 3 6 1006.6 1005.2 0.0
18/06:00pm 36.8 33.6 4.9 14 17.4 W 11 20 6 11 1006.6 1005.2 0.0
18/05:30pm 37.1 32.8 5.2 14 17.5 WSW 17 22 9 12 1006.6 1005.2 0.0
18/05:00pm 36.9 33.7 5.0 14 17.4 W 11 19 6 10 1006.8 1005.4 0.0
18/04:30pm 36.9 33.7 5.0 14 17.4 W 11 17 6 9 1007.0 1005.6 0.0
18/04:00pm 36.3 32.8 5.5 15 16.9 W 13 17 7 9 1007.4 1005.9 0.0
18/03:30pm 36.5 33.5 7.5 17 16.4 W 13 26 7 14 1007.9 1006.5 0.0
18/03:00pm 35.3 32.8 6.6 17 16.0 W 9 17 5 9 1008.6 1007.2 0.0
18/02:30pm 34.7 31.5 8.4 20 15.0 WSW 15 26 8 14 1009.3 1007.9 0.0
18/02:00pm 34.4 30.9 8.9 21 14.6 WNW 17 24 9 13 1010.0 1008.6 0.0
18/01:30pm 34.2 31.2 9.4 22 14.3 NW 15 32 8 17 1010.5 1009.1 0.0
18/01:00pm 33.5 30.2 10.8 25 13.3 NW 19 30 10 16 1011.0 1009.6 0.0

Other formats

Comma delimited format used in spreadsheet applications
http://www.bom.gov.au/fwo/IDN60801/IDN60801.95734.axf

JavaScript Object Notation format (JSON) in row-major order
http://www.bom.gov.au/fwo/IDN60801/IDN60801.95734.json

Data quality

Most of these data are generated automatically and are frequently updated. Quality checks on data are not normally performed. It is possible for incorrect values to appear. Refer to information at About Latest Weather Observations and please check the disclaimer before using these data.